createdAt,value
2016-05-22T00:00:29.485Z,1004.14
2016-05-22T00:01:29.534Z,1004.09
2016-05-22T00:02:29.584Z,1004.07
2016-05-22T00:03:29.633Z,1004.08
2016-05-22T00:04:29.698Z,1004.07
2016-05-22T00:05:29.748Z,1004.05
2016-05-22T00:06:29.798Z,1004.03
2016-05-22T00:07:29.847Z,1004.04
2016-05-22T00:08:29.897Z,1004.05
2016-05-22T00:09:29.946Z,1004.05
2016-05-22T00:10:30.011Z,1004.05
2016-05-22T00:11:30.046Z,1004.04
2016-05-22T00:12:30.111Z,1004.08
2016-05-22T00:13:30.159Z,1004.06
2016-05-22T00:14:30.226Z,1004.06
2016-05-22T00:15:30.259Z,1004.05
2016-05-22T00:16:30.309Z,1004.08
2016-05-22T00:17:30.358Z,1004.09
2016-05-22T00:18:30.408Z,1004.01
2016-05-22T00:19:30.473Z,1003.93
2016-05-22T00:20:30.507Z,1003.94
2016-05-22T00:21:30.572Z,1003.89
2016-05-22T00:22:30.622Z,1003.93
2016-05-22T00:23:30.671Z,1003.89
2016-05-22T00:24:30.722Z,1003.87
2016-05-22T00:25:30.786Z,1003.84
2016-05-22T00:26:30.819Z,1003.81
2016-05-22T00:27:30.870Z,1003.78
2016-05-22T00:28:30.935Z,1003.74
2016-05-22T00:29:30.985Z,1003.64
2016-05-22T00:30:31.034Z,1003.61
2016-05-22T00:31:31.083Z,1003.59
2016-05-22T00:32:31.133Z,1003.59
2016-05-22T00:33:31.182Z,1003.57
2016-05-22T00:34:31.248Z,1003.58
2016-05-22T00:35:31.282Z,1003.58
2016-05-22T00:36:31.347Z,1003.57
2016-05-22T00:37:31.396Z,1003.56
2016-05-22T00:38:31.446Z,1003.5
2016-05-22T00:39:31.496Z,1003.49
2016-05-22T00:40:31.545Z,1003.48
2016-05-22T00:41:31.595Z,1003.49
2016-05-22T00:42:31.645Z,1003.45
2016-05-22T00:43:31.725Z,1003.48
2016-05-22T00:44:31.760Z,1003.45
2016-05-22T00:45:31.809Z,1003.42
2016-05-22T00:46:31.858Z,1003.46
2016-05-22T00:47:31.909Z,1003.41
2016-05-22T00:48:31.958Z,1003.42
2016-05-22T00:49:32.006Z,1003.42
2016-05-22T00:50:32.056Z,1003.43
2016-05-22T00:51:32.122Z,1003.4
2016-05-22T00:52:32.172Z,1003.42
2016-05-22T00:53:32.221Z,1003.39
2016-05-22T00:54:32.270Z,1003.43
2016-05-22T00:55:32.320Z,1003.42
2016-05-22T00:56:32.369Z,1003.4
2016-05-22T00:57:32.419Z,1003.36
2016-05-22T00:58:32.485Z,1003.35
2016-05-22T00:59:32.534Z,1003.34
2016-05-22T01:00:32.568Z,1003.33
2016-05-22T01:01:32.633Z,1003.31
2016-05-22T01:02:32.698Z,1003.34
2016-05-22T01:03:32.732Z,1003.33
2016-05-22T01:04:32.782Z,1003.33
2016-05-22T01:05:32.846Z,1003.34
2016-05-22T01:06:32.896Z,1003.36
2016-05-22T01:07:32.946Z,1003.33
2016-05-22T01:08:32.996Z,1003.3
2016-05-22T01:09:33.045Z,1003.28
2016-05-22T01:10:33.095Z,1003.28
2016-05-22T01:11:33.145Z,1003.3
2016-05-22T01:12:33.193Z,1003.26
2016-05-22T01:13:33.243Z,1003.24
2016-05-22T01:14:33.309Z,1003.23
2016-05-22T01:15:33.342Z,1003.22
2016-05-22T01:16:33.409Z,1003.2
2016-05-22T01:17:33.457Z,1003.17
2016-05-22T01:18:33.506Z,1003.2
2016-05-22T01:19:33.556Z,1003.15
2016-05-22T01:20:33.606Z,1003.14
2016-05-22T01:21:33.656Z,1003.12
2016-05-22T01:22:33.706Z,1003.18
2016-05-22T01:23:33.770Z,1003.16
2016-05-22T01:24:33.820Z,1003.19
2016-05-22T01:25:33.885Z,1003.19
2016-05-22T01:26:33.919Z,1003.17
2016-05-22T01:27:33.969Z,1003.17
2016-05-22T01:28:34.033Z,1003.16
2016-05-22T01:29:34.068Z,1003.13
2016-05-22T01:30:34.116Z,1003.14
2016-05-22T01:31:34.182Z,1003.12
2016-05-22T01:32:34.232Z,1003.1
2016-05-22T01:33:34.282Z,1003.11
2016-05-22T01:34:34.331Z,1003.14
2016-05-22T01:35:34.380Z,1003.12
2016-05-22T01:36:34.430Z,1003.13
2016-05-22T01:37:34.496Z,1003.12
2016-05-22T01:38:34.545Z,1003.1
2016-05-22T01:39:34.595Z,1003.1
2016-05-22T01:40:34.643Z,1003.12
2016-05-22T01:41:34.694Z,1003.14
2016-05-22T01:42:35.243Z,1003.13
2016-05-22T01:43:34.793Z,1003.1
2016-05-22T01:44:34.842Z,1003.14
2016-05-22T01:45:34.907Z,1003.11
2016-05-22T01:46:34.957Z,1003.09
2016-05-22T01:47:35.007Z,1003.08
2016-05-22T01:48:35.056Z,1003.06
2016-05-22T01:49:35.106Z,1003.06
2016-05-22T01:50:35.156Z,1003.06
2016-05-22T01:51:35.205Z,1003.11
2016-05-22T01:52:35.255Z,1003.12
2016-05-22T01:53:35.319Z,1003.1
2016-05-22T01:54:35.370Z,1003.09
2016-05-22T01:55:35.403Z,1003.06
2016-05-22T01:56:35.469Z,1003.04
2016-05-22T01:57:35.518Z,1003.04
2016-05-22T01:58:35.567Z,1003.03
2016-05-22T01:59:35.789Z,1003.01
2016-05-22T02:00:35.667Z,1003.04
2016-05-22T02:01:35.732Z,1003.02
2016-05-22T02:02:35.782Z,1003.02
2016-05-22T02:03:35.830Z,1002.99
2016-05-22T02:04:35.881Z,1002.96
2016-05-22T02:05:35.930Z,1002.95
2016-05-22T02:06:35.979Z,1002.94
2016-05-22T02:07:36.030Z,1002.89
2016-05-22T02:08:36.079Z,1002.9
2016-05-22T02:09:36.144Z,1002.86
2016-05-22T02:10:36.193Z,1002.82
2016-05-22T02:11:36.243Z,1002.78
2016-05-22T02:12:36.293Z,1002.8
2016-05-22T02:13:36.343Z,1002.75
2016-05-22T02:14:36.392Z,1002.8
2016-05-22T02:15:36.457Z,1002.82
2016-05-22T02:16:36.491Z,1002.82
2016-05-22T02:17:36.556Z,1002.8
2016-05-22T02:18:36.606Z,1002.75
2016-05-22T02:19:36.656Z,1002.82
2016-05-22T02:20:36.706Z,1002.72
2016-05-22T02:21:36.754Z,1002.77
2016-05-22T02:22:36.804Z,1002.78
2016-05-22T02:23:36.853Z,1002.76
2016-05-22T02:24:36.903Z,1002.76
2016-05-22T02:25:36.969Z,1002.76
2016-05-22T02:26:37.018Z,1002.76
2016-05-22T02:27:37.099Z,1002.77
2016-05-22T02:28:37.117Z,1002.79
2016-05-22T02:29:37.167Z,1002.77
2016-05-22T02:30:37.216Z,1002.77
2016-05-22T02:31:37.266Z,1002.74
2016-05-22T02:32:37.316Z,1002.68
2016-05-22T02:33:37.366Z,1002.71
2016-05-22T02:34:37.430Z,1002.68
2016-05-22T02:35:37.480Z,1002.65
2016-05-22T02:36:37.529Z,1002.63
2016-05-22T02:37:37.579Z,1002.66
2016-05-22T02:38:37.629Z,1002.63
2016-05-22T02:39:37.678Z,1002.61
2016-05-22T02:40:37.727Z,1002.65
2016-05-22T02:41:37.793Z,1002.64
2016-05-22T02:42:37.843Z,1002.66
2016-05-22T02:43:37.892Z,1002.66
2016-05-22T02:44:37.940Z,1002.6
2016-05-22T02:45:37.991Z,1002.62
2016-05-22T02:46:38.040Z,1002.57
2016-05-22T02:47:38.090Z,1002.59
2016-05-22T02:48:38.156Z,1002.57
2016-05-22T02:49:38.204Z,1002.54
2016-05-22T02:50:38.254Z,1002.51
2016-05-22T02:51:38.304Z,1002.47
2016-05-22T02:52:38.353Z,1002.48
2016-05-22T02:53:38.403Z,1002.42
2016-05-22T02:54:38.453Z,1002.38
2016-05-22T02:55:38.502Z,1002.4
2016-05-22T02:56:38.567Z,1002.37
2016-05-22T02:57:38.633Z,1002.37
2016-05-22T02:58:38.666Z,1002.34
2016-05-22T02:59:38.716Z,1002.38
2016-05-22T03:00:38.766Z,1002.34
2016-05-22T03:01:38.816Z,1002.33
2016-05-22T03:02:38.864Z,1002.34
2016-05-22T03:03:38.913Z,1002.37
2016-05-22T03:04:38.964Z,1002.37
2016-05-22T03:05:39.029Z,1002.41
2016-05-22T03:06:39.063Z,1002.4
2016-05-22T03:07:39.144Z,1002.4
2016-05-22T03:08:39.178Z,1002.36
2016-05-22T03:09:39.227Z,1002.38
2016-05-22T03:10:39.276Z,1002.38
2016-05-22T03:11:39.342Z,1002.39
2016-05-22T03:12:39.376Z,1002.35
2016-05-22T03:13:39.426Z,1002.36
2016-05-22T03:14:39.490Z,1002.42
2016-05-22T03:15:39.540Z,1002.43
2016-05-22T03:16:39.590Z,1002.41
2016-05-22T03:17:39.639Z,1002.39
2016-05-22T03:18:39.690Z,1002.37
2016-05-22T03:19:39.754Z,1002.35
2016-05-22T03:20:39.788Z,1002.35
2016-05-22T03:21:39.837Z,1002.28
2016-05-22T03:22:39.903Z,1002.25
2016-05-22T03:23:39.953Z,1002.24
2016-05-22T03:24:40.002Z,1002.21
2016-05-22T03:25:40.051Z,1002.2
2016-05-22T03:26:40.101Z,1002.19
2016-05-22T03:27:40.150Z,1002.21
2016-05-22T03:28:40.200Z,1002.18
2016-05-22T03:29:40.282Z,1002.19
2016-05-22T03:30:40.348Z,1002.17
2016-05-22T03:31:40.444Z,1002.17
2016-05-22T03:32:40.526Z,1002.16
2016-05-22T03:33:40.607Z,1002.19
2016-05-22T03:34:40.677Z,1002.19
2016-05-22T03:35:40.738Z,1002.19
2016-05-22T03:36:40.813Z,1002.21
2016-05-22T03:37:40.860Z,1002.15
2016-05-22T03:38:40.935Z,1002.16
2016-05-22T03:39:40.993Z,1002.15
2016-05-22T03:40:41.046Z,1002.14
2016-05-22T03:41:41.100Z,1002.09
2016-05-22T03:42:41.153Z,1002.11
2016-05-22T03:43:41.207Z,1002.03
2016-05-22T03:44:41.275Z,1002.02
2016-05-22T03:45:41.327Z,1002
2016-05-22T03:46:41.378Z,1002.01
2016-05-22T03:47:41.429Z,1002.01
2016-05-22T03:48:41.480Z,1002.02
2016-05-22T03:49:41.529Z,1002.06
2016-05-22T03:50:41.580Z,1002
2016-05-22T03:51:41.630Z,1002.04
2016-05-22T03:52:41.680Z,1002.03
2016-05-22T03:53:41.745Z,1002.02
2016-05-22T03:54:41.780Z,1002.06
2016-05-22T03:55:41.845Z,1002.04
2016-05-22T03:56:41.894Z,1002.02
2016-05-22T03:57:41.975Z,1002.01
2016-05-22T03:58:41.993Z,1001.98
2016-05-22T03:59:42.058Z,1001.91
2016-05-22T04:00:42.108Z,1001.9
2016-05-22T04:01:42.142Z,1001.89
2016-05-22T04:02:42.207Z,1001.84
2016-05-22T04:03:42.257Z,1001.81
2016-05-22T04:04:42.306Z,1001.78
2016-05-22T04:05:42.356Z,1001.76
2016-05-22T04:06:42.406Z,1001.72
2016-05-22T04:07:42.455Z,1001.72
2016-05-22T04:08:42.504Z,1001.69
2016-05-22T04:09:42.570Z,1001.65
2016-05-22T04:10:42.620Z,1001.64
2016-05-22T04:11:42.669Z,1001.62
2016-05-22T04:12:42.719Z,1001.6
2016-05-22T04:13:42.768Z,1001.6
2016-05-22T04:14:42.817Z,1001.56
2016-05-22T04:15:42.867Z,1001.55
2016-05-22T04:16:42.917Z,1001.5
2016-05-22T04:17:42.982Z,1001.47
2016-05-22T04:18:43.017Z,1001.46
2016-05-22T04:19:43.082Z,1001.45
2016-05-22T04:20:43.130Z,1001.39
2016-05-22T04:21:43.181Z,1001.39
2016-05-22T04:22:43.230Z,1001.34
2016-05-22T04:23:43.295Z,1001.36
2016-05-22T04:24:43.329Z,1001.32
2016-05-22T04:25:43.379Z,1001.36
2016-05-22T04:26:43.444Z,1001.31
2016-05-22T04:27:43.494Z,1001.33
2016-05-22T04:28:43.544Z,1001.3
2016-05-22T04:29:43.592Z,1001.34
2016-05-22T04:30:43.642Z,1001.37
2016-05-22T04:31:43.691Z,1001.37
2016-05-22T04:32:43.741Z,1001.41
2016-05-22T04:33:43.791Z,1001.38
2016-05-22T04:34:43.855Z,1001.38
2016-05-22T04:35:43.905Z,1001.3
2016-05-22T04:36:43.955Z,1001.26
2016-05-22T04:37:44.005Z,1001.21
2016-05-22T04:38:44.054Z,1001.2
2016-05-22T04:39:44.119Z,1001.13
2016-05-22T04:40:44.168Z,1001.13
2016-05-22T04:41:44.203Z,1001.11
2016-05-22T04:42:44.268Z,1001.1
2016-05-22T04:43:44.302Z,1001.06
2016-05-22T04:44:44.367Z,1001.03
2016-05-22T04:45:44.417Z,1001
2016-05-22T04:46:44.467Z,1001.01
2016-05-22T04:47:44.562Z,1001.03
2016-05-22T04:48:44.565Z,1000.98
2016-05-22T04:49:44.615Z,1001.04
2016-05-22T04:50:44.681Z,1001.07
2016-05-22T04:51:44.730Z,1001.06
2016-05-22T04:52:44.779Z,1001.09
2016-05-22T04:53:44.828Z,1001.1
2016-05-22T04:54:44.894Z,1001.08
2016-05-22T04:55:44.944Z,1001.08
2016-05-22T04:56:44.993Z,1001.07
2016-05-22T04:57:45.074Z,1001.06
2016-05-22T04:58:45.092Z,1000.98
2016-05-22T04:59:45.142Z,1000.97
2016-05-22T05:00:45.191Z,1000.96
2016-05-22T05:01:45.241Z,1000.92
2016-05-22T05:02:45.305Z,1000.91
2016-05-22T05:03:45.355Z,1000.91
2016-05-22T05:04:45.405Z,1000.89
2016-05-22T05:05:45.455Z,1000.89
2016-05-22T05:06:45.504Z,1000.89
2016-05-22T05:07:45.554Z,1000.94
2016-05-22T05:08:45.604Z,1000.91
2016-05-22T05:09:45.653Z,1000.9
2016-05-22T05:10:45.703Z,1000.88
2016-05-22T05:11:45.752Z,1000.81
2016-05-22T05:12:45.817Z,1000.85
2016-05-22T05:13:45.867Z,1000.83
2016-05-22T05:14:45.917Z,1000.79
2016-05-22T05:15:45.965Z,1000.81
2016-05-22T05:16:46.016Z,1000.77
2016-05-22T05:17:46.065Z,1000.76
2016-05-22T05:18:46.114Z,1000.76
2016-05-22T05:19:46.164Z,1000.73
2016-05-22T05:20:46.229Z,1000.77
2016-05-22T05:21:46.264Z,1000.75
2016-05-22T05:22:46.329Z,1000.73
2016-05-22T05:23:46.379Z,1000.73
2016-05-22T05:24:46.427Z,1000.77
2016-05-22T05:25:46.477Z,1000.78
2016-05-22T05:26:46.528Z,1000.76
2016-05-22T05:27:46.592Z,1000.71
2016-05-22T05:28:46.626Z,1000.72
2016-05-22T05:29:46.692Z,1000.78
2016-05-22T05:30:46.741Z,1000.78
2016-05-22T05:31:46.790Z,1000.74
2016-05-22T05:32:46.841Z,1000.82
2016-05-22T05:33:46.889Z,1000.83
2016-05-22T05:34:46.939Z,1000.86
2016-05-22T05:35:46.989Z,1000.84
2016-05-22T05:36:47.039Z,1000.85
2016-05-22T05:37:47.104Z,1000.85
2016-05-22T05:38:47.153Z,1000.88
2016-05-22T05:39:47.202Z,1000.89
2016-05-22T05:40:47.252Z,1000.95
2016-05-22T05:41:47.302Z,1000.98
2016-05-22T05:42:47.399Z,1000.94
2016-05-22T05:43:47.416Z,1000.91
2016-05-22T05:44:47.465Z,1000.9
2016-05-22T05:45:47.515Z,1000.94
2016-05-22T05:46:47.565Z,1000.92
2016-05-22T05:47:47.614Z,1000.92
2016-05-22T05:48:47.665Z,1000.93
2016-05-22T05:49:47.714Z,1000.89
2016-05-22T05:50:47.764Z,1000.88
2016-05-22T05:51:47.828Z,1000.89
2016-05-22T05:52:47.879Z,1000.87
2016-05-22T05:53:47.928Z,1000.86
2016-05-22T05:54:47.978Z,1000.76
2016-05-22T05:55:48.027Z,1000.77
2016-05-22T05:56:48.076Z,1000.77
2016-05-22T05:57:48.126Z,1000.76
2016-05-22T05:58:48.175Z,1000.73
2016-05-22T05:59:48.225Z,1000.74
2016-05-22T06:00:48.275Z,1000.7
2016-05-22T06:01:48.339Z,1000.67
2016-05-22T06:02:48.389Z,1000.62
2016-05-22T06:03:48.438Z,1000.57
2016-05-22T06:04:48.505Z,1000.52
2016-05-22T06:05:48.538Z,1000.45
2016-05-22T06:06:48.588Z,1000.43
2016-05-22T06:07:48.653Z,1000.36
2016-05-22T06:08:48.702Z,1000.32
2016-05-22T06:09:48.752Z,1000.34
2016-05-22T06:10:48.818Z,1000.29
2016-05-22T06:11:48.851Z,1000.29
2016-05-22T06:12:49.104Z,1000.34
2016-05-22T06:13:48.951Z,1000.36
2016-05-22T06:14:49.000Z,1000.4
2016-05-22T06:15:49.049Z,1000.43
2016-05-22T06:16:49.115Z,1000.47
2016-05-22T06:17:49.165Z,1000.49
2016-05-22T06:18:49.215Z,1000.46
2016-05-22T06:19:49.263Z,1000.51
2016-05-22T06:20:49.312Z,1000.5
2016-05-22T06:21:49.362Z,1000.42
2016-05-22T06:22:49.412Z,1000.45
2016-05-22T06:23:49.462Z,1000.4
2016-05-22T06:24:49.527Z,1000.35
2016-05-22T06:25:49.576Z,1000.31
2016-05-22T06:26:49.625Z,1000.35
2016-05-22T06:27:49.692Z,1000.32
2016-05-22T06:28:49.725Z,1000.33
2016-05-22T06:29:49.790Z,1000.31
2016-05-22T06:30:49.840Z,1000.35
2016-05-22T06:31:49.890Z,1000.36
2016-05-22T06:32:49.938Z,1000.36
2016-05-22T06:33:49.988Z,1000.35
2016-05-22T06:34:50.038Z,1000.4
2016-05-22T06:35:50.088Z,1000.4
2016-05-22T06:36:50.138Z,1000.39
2016-05-22T06:37:50.186Z,1000.43
2016-05-22T06:38:50.251Z,1000.41
2016-05-22T06:39:50.285Z,1000.37
2016-05-22T06:40:50.351Z,1000.39
2016-05-22T06:41:50.401Z,1000.42
2016-05-22T06:42:50.450Z,1000.43
2016-05-22T06:43:50.500Z,1000.37
2016-05-22T06:44:50.549Z,1000.38
2016-05-22T06:45:50.598Z,1000.41
2016-05-22T06:46:50.649Z,1000.43
2016-05-22T06:47:50.713Z,1000.43
2016-05-22T06:48:50.763Z,1000.41
2016-05-22T06:49:50.813Z,1000.39
2016-05-22T06:50:50.862Z,1000.42
2016-05-22T06:51:50.911Z,1000.38
2016-05-22T06:52:50.976Z,1000.39
2016-05-22T06:53:51.026Z,1000.35
2016-05-22T06:54:51.076Z,1000.37
2016-05-22T06:55:51.126Z,1000.36
2016-05-22T06:56:51.175Z,1000.34
2016-05-22T06:57:51.225Z,1000.27
2016-05-22T06:58:51.290Z,1000.25
2016-05-22T06:59:51.324Z,1000.2
2016-05-22T07:00:51.374Z,1000.23
2016-05-22T07:01:51.439Z,1000.2
2016-05-22T07:02:51.488Z,1000.22
2016-05-22T07:03:51.538Z,1000.19
2016-05-22T07:04:51.588Z,1000.14
2016-05-22T07:05:51.636Z,1000.12
2016-05-22T07:06:51.686Z,1000.17
2016-05-22T07:07:51.752Z,1000.11
2016-05-22T07:08:51.802Z,1000.07
2016-05-22T07:09:51.835Z,1000.06
2016-05-22T07:10:51.900Z,1000.06
2016-05-22T07:11:51.966Z,1000.05
2016-05-22T07:12:51.999Z,1000
2016-05-22T07:13:52.049Z,1000.06
2016-05-22T07:14:52.099Z,1000
2016-05-22T07:15:52.163Z,1000.01
2016-05-22T07:16:52.213Z,1000.09
2016-05-22T07:17:52.263Z,1000.04
2016-05-22T07:18:52.313Z,999.99
2016-05-22T07:19:52.362Z,999.95
2016-05-22T07:20:52.427Z,999.93
2016-05-22T07:21:52.462Z,999.98
2016-05-22T07:22:52.527Z,999.95
2016-05-22T07:23:52.560Z,999.94
2016-05-22T07:24:52.626Z,999.99
2016-05-22T07:25:52.676Z,999.95
2016-05-22T07:26:52.725Z,1000
2016-05-22T07:27:52.775Z,999.99
2016-05-22T07:28:52.823Z,999.98
2016-05-22T07:29:52.889Z,999.98
2016-05-22T07:30:52.923Z,1000
2016-05-22T07:31:52.989Z,999.94
2016-05-22T07:32:53.038Z,999.96
2016-05-22T07:33:53.086Z,999.95
2016-05-22T07:34:53.136Z,999.84
2016-05-22T07:35:53.187Z,999.83
2016-05-22T07:36:53.236Z,999.8
2016-05-22T07:37:53.302Z,999.87
2016-05-22T07:38:53.335Z,999.86
2016-05-22T07:39:53.400Z,999.87
2016-05-22T07:40:53.449Z,999.84
2016-05-22T07:41:53.499Z,999.81
2016-05-22T07:42:54.033Z,999.82
2016-05-22T07:43:53.614Z,999.78
2016-05-22T07:44:53.663Z,999.78
2016-05-22T07:45:53.713Z,999.74
2016-05-22T07:46:53.762Z,999.78
2016-05-22T07:47:53.812Z,999.7
2016-05-22T07:48:53.863Z,999.74
2016-05-22T07:49:53.912Z,999.74
2016-05-22T07:50:53.961Z,999.76
2016-05-22T07:51:54.010Z,999.7
2016-05-22T07:52:54.076Z,999.71
2016-05-22T07:53:54.125Z,999.73
2016-05-22T07:54:54.176Z,999.74
2016-05-22T07:55:54.225Z,999.74
2016-05-22T07:56:54.273Z,999.74
2016-05-22T07:57:54.840Z,999.68
2016-05-22T07:58:54.389Z,999.64
2016-05-22T07:59:54.438Z,999.64
2016-05-22T08:00:54.489Z,999.61
2016-05-22T08:01:54.538Z,999.59
2016-05-22T08:02:54.587Z,999.52
2016-05-22T08:03:54.636Z,999.58
2016-05-22T08:04:54.687Z,999.71
2016-05-22T08:05:54.736Z,999.68
2016-05-22T08:06:54.800Z,999.65
2016-05-22T08:07:54.850Z,999.6
2016-05-22T08:08:54.900Z,999.61
2016-05-22T08:09:54.966Z,999.62
2016-05-22T08:10:55.000Z,999.68
2016-05-22T08:11:55.064Z,999.75
2016-05-22T08:12:55.255Z,999.77
2016-05-22T08:13:55.163Z,999.78
2016-05-22T08:14:55.229Z,999.82
2016-05-22T08:15:55.262Z,999.86
2016-05-22T08:16:55.312Z,999.84
2016-05-22T08:17:55.362Z,999.89
2016-05-22T08:18:55.412Z,999.84
2016-05-22T08:19:55.460Z,999.86
2016-05-22T08:20:55.510Z,999.83
2016-05-22T08:21:55.576Z,999.83
2016-05-22T08:22:55.626Z,999.82
2016-05-22T08:23:55.675Z,999.88
2016-05-22T08:24:55.724Z,999.81
2016-05-22T08:25:55.790Z,999.8
2016-05-22T08:26:55.839Z,999.8
2016-05-22T08:27:55.889Z,999.81
2016-05-22T08:28:55.939Z,999.76
2016-05-22T08:29:55.988Z,999.77
2016-05-22T08:30:56.037Z,999.82
2016-05-22T08:31:56.103Z,999.79
2016-05-22T08:32:56.136Z,999.74
2016-05-22T08:33:56.203Z,999.79
2016-05-22T08:34:56.251Z,999.74
2016-05-22T08:35:56.301Z,999.74
2016-05-22T08:36:56.350Z,999.8
2016-05-22T08:37:56.416Z,999.8
2016-05-22T08:38:56.465Z,999.75
2016-05-22T08:39:56.515Z,999.79
2016-05-22T08:40:56.564Z,999.76
2016-05-22T08:41:56.614Z,999.75
2016-05-22T08:42:56.663Z,999.73
2016-05-22T08:43:56.713Z,999.76
2016-05-22T08:44:56.763Z,999.8
2016-05-22T08:45:56.813Z,999.78
2016-05-22T08:46:56.862Z,999.75
2016-05-22T08:47:56.927Z,999.7
2016-05-22T08:48:56.976Z,999.84
2016-05-22T08:49:57.026Z,999.87
2016-05-22T08:50:57.076Z,999.89
2016-05-22T08:51:57.140Z,999.95
2016-05-22T08:52:57.174Z,999.92
2016-05-22T08:53:57.240Z,1000.07
2016-05-22T08:54:57.290Z,999.93
2016-05-22T08:55:57.339Z,999.97
2016-05-22T08:56:57.389Z,999.99
2016-05-22T08:57:57.438Z,1000
2016-05-22T08:58:57.487Z,999.94
2016-05-22T08:59:57.553Z,1000.05
2016-05-22T09:00:57.602Z,1000.06
2016-05-22T09:01:57.652Z,1000
2016-05-22T09:02:57.701Z,1000.03
2016-05-22T09:03:57.751Z,1000.01
2016-05-22T09:04:57.816Z,999.99
2016-05-22T09:05:57.866Z,1000.05
2016-05-22T09:06:57.916Z,1000.13
2016-05-22T09:07:57.965Z,1000.03
2016-05-22T09:08:58.014Z,999.99
2016-05-22T09:09:58.064Z,1000.04
2016-05-22T09:10:58.114Z,1000.09
2016-05-22T09:11:58.163Z,999.97
2016-05-22T09:12:58.228Z,999.93
2016-05-22T09:13:58.278Z,999.93
2016-05-22T09:14:58.313Z,999.98
2016-05-22T09:15:58.377Z,999.89
2016-05-22T09:16:58.426Z,999.91
2016-05-22T09:17:58.476Z,999.86
2016-05-22T09:18:58.526Z,999.84
2016-05-22T09:19:58.591Z,999.87
2016-05-22T09:20:58.640Z,999.9
2016-05-22T09:21:58.690Z,999.83
2016-05-22T09:22:58.740Z,999.91
2016-05-22T09:23:58.805Z,999.94
2016-05-22T09:24:58.839Z,999.86
2016-05-22T09:25:58.904Z,999.96
2016-05-22T09:26:58.954Z,999.89
2016-05-22T09:27:59.222Z,999.87
2016-05-22T09:28:59.053Z,999.79
2016-05-22T09:29:59.103Z,999.9
2016-05-22T09:30:59.168Z,999.88
2016-05-22T09:31:59.218Z,999.86
2016-05-22T09:32:59.267Z,999.87
2016-05-22T09:33:59.316Z,1000
2016-05-22T09:34:59.366Z,999.95
2016-05-22T09:35:59.415Z,999.86
2016-05-22T09:36:59.464Z,999.99
2016-05-22T09:37:59.530Z,999.96
2016-05-22T09:38:59.580Z,999.93
2016-05-22T09:39:59.630Z,1000.04
2016-05-22T09:40:59.678Z,1000.02
2016-05-22T09:41:59.744Z,999.92
2016-05-22T09:42:59.778Z,999.85
2016-05-22T09:43:59.827Z,999.84
2016-05-22T09:44:59.877Z,999.95
2016-05-22T09:45:59.942Z,1000.03
2016-05-22T09:46:59.992Z,999.95
2016-05-22T09:48:00.041Z,1000.05
2016-05-22T09:49:00.107Z,999.93
2016-05-22T09:50:00.157Z,999.84
2016-05-22T09:51:00.205Z,999.92
2016-05-22T09:52:00.255Z,999.93
2016-05-22T09:53:00.305Z,999.89
2016-05-22T09:54:00.355Z,999.94
2016-05-22T09:55:00.420Z,999.89
2016-05-22T09:56:00.454Z,999.97
2016-05-22T09:57:00.503Z,1000.05
2016-05-22T09:58:00.568Z,1000.03
2016-05-22T09:59:00.618Z,1000.01
2016-05-22T10:00:00.667Z,999.96
2016-05-22T10:01:00.732Z,1000.1
2016-05-22T10:02:00.782Z,1000.16
2016-05-22T10:03:00.831Z,1000.16
2016-05-22T10:04:00.881Z,1000.27
2016-05-22T10:05:00.931Z,1000.22
2016-05-22T10:06:00.981Z,1000.22
2016-05-22T10:07:01.031Z,1000.2
2016-05-22T10:08:01.080Z,1000.24
2016-05-22T10:09:01.129Z,1000.36
2016-05-22T10:10:01.194Z,1000.38
2016-05-22T10:11:01.244Z,1000.27
2016-05-22T10:12:01.294Z,1000.28
2016-05-22T10:13:01.343Z,1000.29
2016-05-22T10:14:01.408Z,1000.28
2016-05-22T10:15:01.458Z,1000.3
2016-05-22T10:16:01.507Z,1000.3
2016-05-22T10:17:01.558Z,1000.27
2016-05-22T10:18:01.606Z,1000.2
2016-05-22T10:19:01.656Z,1000.21
2016-05-22T10:20:01.705Z,1000.21
2016-05-22T10:21:01.755Z,1000.21
2016-05-22T10:22:01.821Z,1000.29
2016-05-22T10:23:01.870Z,1000.3
2016-05-22T10:24:01.919Z,1000.23
2016-05-22T10:25:01.985Z,1000.26
2016-05-22T10:26:02.018Z,1000.27
2016-05-22T10:27:02.068Z,1000.24
2016-05-22T10:28:02.134Z,1000.29
2016-05-22T10:29:02.182Z,1000.31
2016-05-22T10:30:02.232Z,1000.25
2016-05-22T10:31:02.281Z,1000.24
2016-05-22T10:32:02.348Z,1000.23
2016-05-22T10:33:02.398Z,1000.19
2016-05-22T10:34:02.446Z,1000.24
2016-05-22T10:35:02.496Z,1000.29
2016-05-22T10:36:02.546Z,1000.24
2016-05-22T10:37:02.595Z,1000.21
2016-05-22T10:38:02.645Z,1000.23
2016-05-22T10:39:02.694Z,1000.23
2016-05-22T10:40:02.759Z,1000.09
2016-05-22T10:41:02.809Z,1000.11
2016-05-22T10:42:02.859Z,1000.09
2016-05-22T10:43:02.908Z,1000.14
2016-05-22T10:44:02.958Z,1000.15
2016-05-22T10:45:03.007Z,1000.21
2016-05-22T10:46:03.058Z,1000.21
2016-05-22T10:47:03.121Z,1000.28
2016-05-22T10:48:03.171Z,1000.26
2016-05-22T10:49:03.221Z,1000.26
2016-05-22T10:50:03.271Z,1000.33
2016-05-22T10:51:03.321Z,1000.32
2016-05-22T10:52:03.385Z,1000.4
2016-05-22T10:53:03.435Z,1000.45
2016-05-22T10:54:03.485Z,1000.49
2016-05-22T10:55:03.535Z,1000.39
2016-05-22T10:56:03.585Z,1000.46
2016-05-22T10:57:03.632Z,1000.57
2016-05-22T10:58:04.057Z,1000.57
2016-05-22T10:59:03.748Z,1000.57
2016-05-22T11:00:03.798Z,1000.55
2016-05-22T11:01:03.848Z,1000.62
2016-05-22T11:02:03.896Z,1000.7
2016-05-22T11:03:03.962Z,1000.66
2016-05-22T11:04:04.012Z,1000.63
2016-05-22T11:05:04.062Z,1000.66
2016-05-22T11:06:04.111Z,1000.69
2016-05-22T11:07:04.159Z,1000.73
2016-05-22T11:08:04.209Z,1000.79
2016-05-22T11:09:04.259Z,1000.76
2016-05-22T11:10:04.308Z,1000.82
2016-05-22T11:11:04.359Z,1000.8
2016-05-22T11:12:04.423Z,1000.83
2016-05-22T11:13:05.098Z,1000.84
2016-05-22T11:14:04.522Z,1000.88
2016-05-22T11:15:04.572Z,1000.9
2016-05-22T11:16:04.638Z,1000.86
2016-05-22T11:17:04.687Z,1000.83
2016-05-22T11:18:04.736Z,1000.85
2016-05-22T11:19:04.786Z,1000.92
2016-05-22T11:20:04.851Z,1000.88
2016-05-22T11:21:04.901Z,1000.9
2016-05-22T11:22:04.950Z,1000.88
2016-05-22T11:23:05.000Z,1000.89
2016-05-22T11:24:05.050Z,1000.98
2016-05-22T11:25:05.099Z,1000.92
2016-05-22T11:26:05.149Z,1000.91
2016-05-22T11:27:05.199Z,1000.91
2016-05-22T11:28:05.263Z,1001.03
2016-05-22T11:29:05.641Z,1001.01
2016-05-22T11:30:05.362Z,1001
2016-05-22T11:31:05.412Z,1001.04
2016-05-22T11:32:05.477Z,1001.07
2016-05-22T11:33:05.512Z,1000.99
2016-05-22T11:34:05.577Z,1001.01
2016-05-22T11:35:05.626Z,1001
2016-05-22T11:36:05.692Z,1001.09
2016-05-22T11:37:05.726Z,1001.08
2016-05-22T11:38:05.790Z,1001.06
2016-05-22T11:39:05.840Z,1001.04
2016-05-22T11:40:05.889Z,1001.03
2016-05-22T11:41:05.923Z,1001.04
2016-05-22T11:42:05.989Z,1000.97
2016-05-22T11:43:06.039Z,1001.09
2016-05-22T11:44:06.088Z,1001.03
2016-05-22T11:45:06.153Z,1001.12
2016-05-22T11:46:06.203Z,1001.05
2016-05-22T11:47:06.253Z,1001.07
2016-05-22T11:48:06.302Z,1001.11
2016-05-22T11:49:06.351Z,1001.05
2016-05-22T11:50:06.401Z,1001
2016-05-22T11:51:06.450Z,1001.06
2016-05-22T11:52:06.516Z,1001.18
2016-05-22T11:53:06.550Z,1001.17
2016-05-22T11:54:06.630Z,1001.09
2016-05-22T11:55:06.664Z,1001.1
2016-05-22T11:56:06.714Z,1001.14
2016-05-22T11:57:06.779Z,1001.15
2016-05-22T11:58:07.079Z,1001.1
2016-05-22T11:59:06.878Z,1001.07
2016-05-22T12:00:06.927Z,1001.12
2016-05-22T12:01:06.977Z,1001.19
2016-05-22T12:02:07.043Z,1001.17
2016-05-22T12:03:07.093Z,1001.14
2016-05-22T12:04:07.142Z,1001.13
2016-05-22T12:05:07.191Z,1001.1
2016-05-22T12:06:07.240Z,1001.13
2016-05-22T12:07:07.290Z,1001.06
2016-05-22T12:08:07.340Z,1001.18
2016-05-22T12:09:07.405Z,1001.07
2016-05-22T12:10:07.454Z,1001.04
2016-05-22T12:11:07.504Z,1001.13
2016-05-22T12:12:07.554Z,1001.01
2016-05-22T12:13:07.620Z,1000.91
2016-05-22T12:14:07.652Z,1001.02